createdAt,value
2023-09-12T00:02:24.818Z,100056.38
2023-09-12T00:05:27.635Z,100051.06
2023-09-12T00:08:30.069Z,100049.41
2023-09-12T00:11:32.779Z,100048.81
2023-09-12T00:14:35.360Z,100045.91
2023-09-12T00:17:38.007Z,100042.56
2023-09-12T00:20:40.373Z,100048.66
2023-09-12T00:23:43.450Z,100043.75
2023-09-12T00:26:46.065Z,100045.31
2023-09-12T00:29:48.869Z,100039.59
2023-09-12T00:32:51.314Z,100045.44
2023-09-12T00:35:54.197Z,100045.25
2023-09-12T00:38:56.669Z,100041.53
2023-09-12T00:41:59.311Z,100048.47
2023-09-12T00:45:01.738Z,100039.69
2023-09-12T00:48:06.171Z,100040.25
2023-09-12T00:51:09.327Z,100038.56
2023-09-12T00:54:12.353Z,100043.94
2023-09-12T00:57:16.067Z,100047.16
2023-09-12T01:00:19.088Z,100040.37
2023-09-12T01:03:21.620Z,100037.31
2023-09-12T01:06:29.762Z,100052.94
2023-09-12T01:09:33.484Z,100040.13
2023-09-12T01:12:37.200Z,100053.28
2023-09-12T01:15:39.715Z,100047.91
2023-09-12T01:18:44.098Z,100048.28
2023-09-12T01:22:00.629Z,100047.16
2023-09-12T01:25:34.874Z,100054.03
2023-09-12T01:28:44.032Z,100045.44
2023-09-12T01:31:48.933Z,100050.09
2023-09-12T01:34:51.341Z,100055.13
2023-09-12T01:37:54.479Z,100056.22
2023-09-12T01:40:57.491Z,100054.94
2023-09-12T01:44:03.221Z,100054.94
2023-09-12T01:47:07.776Z,100062.56
2023-09-12T01:50:14.261Z,100062.97
2023-09-12T01:53:17.282Z,100062.72
2023-09-12T01:56:21.416Z,100059.16
2023-09-12T01:59:23.838Z,100069.66
2023-09-12T02:02:26.577Z,100057.94
2023-09-12T02:05:29.353Z,100065.25
2023-09-12T02:08:31.755Z,100064.16
2023-09-12T02:11:34.386Z,100067.91
2023-09-12T02:14:36.792Z,100062.34
2023-09-12T02:17:40.269Z,100063.25
2023-09-12T02:20:47.003Z,100071.84
2023-09-12T02:23:49.524Z,100066.44
2023-09-12T02:26:52.305Z,100062.00
2023-09-12T02:29:54.698Z,100070.00
2023-09-12T02:32:57.391Z,100067.87
2023-09-12T02:35:59.912Z,100071.88
2023-09-12T02:39:02.741Z,100064.56
2023-09-12T02:42:05.531Z,100063.22
2023-09-12T02:45:08.808Z,100071.44
2023-09-12T02:48:11.392Z,100065.97
2023-09-12T02:51:14.700Z,100066.94
2023-09-12T02:54:17.112Z,100062.75
2023-09-12T02:57:20.247Z,100064.13
2023-09-12T03:00:23.684Z,100062.22
2023-09-12T03:03:26.607Z,100053.19
2023-09-12T03:06:30.346Z,100061.66
2023-09-12T03:09:33.209Z,100057.47
2023-09-12T03:12:38.780Z,100063.22
2023-09-12T03:15:41.672Z,100060.28
2023-09-12T03:18:44.356Z,100064.19
2023-09-12T03:21:47.259Z,100066.75
2023-09-12T03:24:49.751Z,100070.75
2023-09-12T03:27:52.599Z,100070.41
2023-09-12T03:31:05.804Z,100067.78
2023-09-12T03:34:08.736Z,100076.97
2023-09-12T03:37:11.198Z,100073.41
2023-09-12T03:40:14.075Z,100078.06
2023-09-12T03:43:16.491Z,100078.00
2023-09-12T03:46:19.293Z,100076.41
2023-09-12T03:49:21.846Z,100077.34
2023-09-12T03:52:24.759Z,100087.09
2023-09-12T03:55:27.232Z,100084.63
2023-09-12T03:58:30.100Z,100080.44
2023-09-12T04:01:32.642Z,100083.97
2023-09-12T04:04:35.986Z,100081.34
2023-09-12T04:07:38.599Z,100077.06
2023-09-12T04:10:41.300Z,100083.97
2023-09-12T04:13:44.993Z,100086.62
2023-09-12T04:16:48.050Z,100085.84
2023-09-12T04:19:50.706Z,100084.81
2023-09-12T04:22:53.453Z,100088.56
2023-09-12T04:25:56.003Z,100085.75
2023-09-12T04:28:58.669Z,100086.03
2023-09-12T04:32:01.182Z,100080.00
2023-09-12T04:35:04.649Z,100087.03
2023-09-12T04:38:07.063Z,100086.34
2023-09-12T04:41:11.050Z,100090.28
2023-09-12T04:44:13.731Z,100095.84
2023-09-12T04:47:16.539Z,100098.78
2023-09-12T04:50:19.091Z,100103.53
2023-09-12T04:53:22.569Z,100097.50
2023-09-12T04:56:28.254Z,100098.94
2023-09-12T04:59:30.961Z,100098.78
2023-09-12T05:02:33.496Z,100097.41
2023-09-12T05:05:37.639Z,100097.03
2023-09-12T05:08:41.012Z,100102.41
2023-09-12T05:11:44.052Z,100100.03
2023-09-12T05:14:46.562Z,100103.59
2023-09-12T05:17:49.572Z,100098.56
2023-09-12T05:20:52.084Z,100100.31
2023-09-12T05:23:54.774Z,100102.00
2023-09-12T05:26:57.466Z,100107.69
2023-09-12T05:30:00.338Z,100118.00
2023-09-12T05:33:03.191Z,100110.31
2023-09-12T05:36:06.220Z,100112.84
2023-09-12T05:39:08.978Z,100110.25
2023-09-12T05:42:12.538Z,100121.81
2023-09-12T05:45:14.982Z,100113.22
2023-09-12T05:48:18.448Z,100113.34
2023-09-12T05:51:20.983Z,100121.16
2023-09-12T05:54:23.946Z,100115.31
2023-09-12T05:57:26.624Z,100122.44
2023-09-12T06:00:29.781Z,100126.97
2023-09-12T06:03:32.677Z,100125.84
2023-09-12T06:06:35.206Z,100133.75
2023-09-12T06:09:37.900Z,100126.84
2023-09-12T06:12:40.425Z,100128.84
2023-09-12T06:15:43.267Z,100137.12
2023-09-12T06:18:46.177Z,100147.19
2023-09-12T06:21:49.207Z,100149.00
2023-09-12T06:24:52.053Z,100139.09
2023-09-12T06:27:54.786Z,100146.25
2023-09-12T06:31:00.561Z,100146.34
2023-09-12T06:34:03.890Z,100151.19
2023-09-12T06:37:06.264Z,100149.31
2023-09-12T06:40:09.811Z,100146.06
2023-09-12T06:43:12.344Z,100150.16
2023-09-12T06:46:15.761Z,100144.66
2023-09-12T06:49:18.346Z,100156.81
2023-09-12T06:52:21.204Z,100153.63
2023-09-12T06:55:23.983Z,100160.81
2023-09-12T06:58:27.321Z,100152.94
2023-09-12T07:01:29.907Z,100159.78
2023-09-12T07:04:32.741Z,100166.84
2023-09-12T07:07:35.276Z,100165.56
2023-09-12T07:10:38.405Z,100174.44
2023-09-12T07:13:41.770Z,100166.37
2023-09-12T07:16:45.841Z,100169.94
2023-09-12T07:19:48.540Z,100170.69
2023-09-12T07:22:51.677Z,100170.56
2023-09-12T07:25:58.361Z,100171.59
2023-09-12T07:29:03.791Z,100171.50
2023-09-12T07:32:06.468Z,100172.56
2023-09-12T07:35:09.275Z,100176.31
2023-09-12T07:38:11.716Z,100166.47
2023-09-12T07:41:14.422Z,100169.13
2023-09-12T07:44:17.726Z,100168.09
2023-09-12T07:47:20.774Z,100174.84
2023-09-12T07:50:23.349Z,100164.56
2023-09-12T07:53:26.136Z,100166.03
2023-09-12T07:56:28.736Z,100174.41
2023-09-12T07:59:31.718Z,100172.84
2023-09-12T08:02:34.219Z,100171.31
2023-09-12T08:05:37.322Z,100166.13
2023-09-12T08:08:39.794Z,100164.47
2023-09-12T08:11:42.547Z,100167.44
2023-09-12T08:14:46.332Z,100170.69
2023-09-12T08:17:53.157Z,100166.16
2023-09-12T08:20:55.922Z,100161.94
2023-09-12T08:23:58.642Z,100163.69
2023-09-12T08:27:01.565Z,100166.88
2023-09-12T08:30:05.426Z,100168.53
2023-09-12T08:33:08.249Z,100167.72
2023-09-12T08:36:11.039Z,100164.75
2023-09-12T08:39:17.270Z,100162.87
2023-09-12T08:42:20.815Z,100165.47
2023-09-12T08:45:23.330Z,100167.13
2023-09-12T08:48:27.238Z,100173.06
2023-09-12T08:51:29.874Z,100162.25
2023-09-12T08:54:34.126Z,100167.69
2023-09-12T08:57:43.032Z,100162.91
2023-09-12T09:00:45.989Z,100169.00
2023-09-12T09:03:49.371Z,100168.69
2023-09-12T09:06:52.382Z,100164.94
2023-09-12T09:09:55.153Z,100166.09
2023-09-12T09:12:57.979Z,100166.56
2023-09-12T09:16:15.014Z,100168.00
2023-09-12T09:19:19.708Z,100166.31
2023-09-12T09:22:24.279Z,100166.66
2023-09-12T09:25:27.091Z,100157.62
2023-09-12T09:28:29.537Z,100163.38
2023-09-12T09:31:33.313Z,100162.81
2023-09-12T09:34:40.516Z,100157.34
2023-09-12T09:37:43.912Z,100156.53
2023-09-12T09:40:46.856Z,100154.03
2023-09-12T09:43:53.378Z,100162.44
2023-09-12T09:47:01.420Z,100155.75
2023-09-12T09:50:05.041Z,100154.53
2023-09-12T09:53:09.805Z,100156.94
2023-09-12T09:56:16.648Z,100155.19
2023-09-12T09:59:23.187Z,100153.16
2023-09-12T10:02:27.323Z,100154.19
2023-09-12T10:05:32.273Z,100151.66
2023-09-12T10:08:36.700Z,100147.69
2023-09-12T10:11:41.073Z,100151.78
2023-09-12T10:14:45.545Z,100154.19
2023-09-12T10:17:52.458Z,100150.28
2023-09-12T10:21:06.231Z,100135.34
2023-09-12T10:24:10.030Z,100135.19
2023-09-12T10:27:14.684Z,100128.00
2023-09-12T10:30:19.769Z,100125.31
2023-09-12T10:33:22.325Z,100123.41
2023-09-12T10:36:28.038Z,100121.22
2023-09-12T10:39:32.089Z,100114.81
2023-09-12T10:42:36.432Z,100110.50
2023-09-12T10:45:39.785Z,100106.66
2023-09-12T10:48:43.193Z,100111.37
2023-09-12T10:51:47.683Z,100093.97
2023-09-12T10:54:50.641Z,100100.34
2023-09-12T10:58:09.541Z,100099.84
2023-09-12T11:01:27.931Z,100098.09
2023-09-12T11:04:34.721Z,100101.16
2023-09-12T11:07:37.628Z,100097.50
2023-09-12T11:10:41.895Z,100097.97
2023-09-12T11:13:45.160Z,100094.87
2023-09-12T11:17:19.981Z,100094.78
2023-09-12T11:20:24.671Z,100095.53
2023-09-12T11:23:27.427Z,100086.78
2023-09-12T11:26:30.900Z,100087.03
2023-09-12T11:29:38.434Z,100077.31
2023-09-12T11:32:41.323Z,100079.50
2023-09-12T11:35:44.583Z,100082.88
2023-09-12T11:38:51.228Z,100079.47
2023-09-12T11:41:55.085Z,100078.25
2023-09-12T11:44:58.717Z,100072.62
2023-09-12T11:48:04.180Z,100075.94
2023-09-12T11:51:08.628Z,100073.88
2023-09-12T11:54:11.145Z,100063.78
2023-09-12T11:57:15.977Z,100072.06
2023-09-12T12:00:20.781Z,100058.13
2023-09-12T12:03:25.624Z,100055.13
2023-09-12T12:06:28.453Z,100045.06
2023-09-12T12:09:31.988Z,100052.88
2023-09-12T12:12:34.493Z,100050.59
2023-09-12T12:15:37.348Z,100046.47
2023-09-12T12:18:41.198Z,100040.06
2023-09-12T12:21:44.610Z,100045.78
2023-09-12T12:24:48.769Z,100024.94
2023-09-12T12:27:51.578Z,100021.75
2023-09-12T12:30:55.806Z,100014.22
2023-09-12T12:35:04.059Z,100024.72
2023-09-12T12:37:34.175Z,100016.97
2023-09-12T12:40:47.626Z,100027.16
2023-09-12T12:44:02.976Z,100019.66
2023-09-12T12:47:09.093Z,100014.41
2023-09-12T12:50:21.795Z,100010.25
2023-09-12T12:56:46.778Z,100003.72
2023-09-12T12:59:49.800Z,100000.37
2023-09-12T13:02:52.193Z,100003.41
2023-09-12T13:05:54.939Z,100012.00
2023-09-12T13:08:58.618Z,100002.44
2023-09-12T13:12:01.730Z,100001.84
2023-09-12T13:15:05.933Z,100003.75
2023-09-12T13:18:08.721Z,99995.25
2023-09-12T13:21:11.131Z,99993.34
2023-09-12T13:24:14.571Z,99995.94
2023-09-12T13:27:17.059Z,99991.19
2023-09-12T13:30:19.810Z,99981.34
2023-09-12T13:33:22.727Z,99975.69
2023-09-12T13:36:25.533Z,99985.41
2023-09-12T13:39:28.204Z,99984.47
2023-09-12T13:42:32.417Z,99983.41
2023-09-12T13:45:36.444Z,99983.00
2023-09-12T13:48:39.240Z,99981.13
2023-09-12T13:51:41.698Z,99980.22
2023-09-12T13:54:44.861Z,99977.63
2023-09-12T13:57:54.469Z,99971.81
2023-09-12T14:00:57.421Z,99975.72
2023-09-12T14:04:00.758Z,99968.25
2023-09-12T14:07:04.519Z,99971.53
2023-09-12T14:10:09.123Z,99974.53
2023-09-12T14:13:20.095Z,99962.31
2023-09-12T14:16:24.491Z,99966.72
2023-09-12T14:19:27.944Z,99971.06
2023-09-12T14:22:32.583Z,99961.06
2023-09-12T14:25:36.321Z,99970.44
2023-09-12T14:28:41.092Z,99969.66
2023-09-12T14:31:51.657Z,99971.78
2023-09-12T14:34:54.783Z,99975.03
2023-09-12T14:37:57.249Z,99972.13
2023-09-12T14:40:59.953Z,99977.03
2023-09-12T14:44:02.391Z,99970.69
2023-09-12T14:47:05.424Z,99972.00
2023-09-12T14:50:08.155Z,99966.06
2023-09-12T14:53:14.183Z,99967.78
2023-09-12T14:56:16.909Z,99973.03
2023-09-12T14:59:19.894Z,99969.75
2023-09-12T15:02:22.494Z,99976.69
2023-09-12T15:05:25.681Z,99971.19
2023-09-12T15:08:28.051Z,99977.44
2023-09-12T15:11:32.416Z,99975.31
2023-09-12T15:14:36.070Z,99968.53
2023-09-12T15:17:39.700Z,99979.31
2023-09-12T15:20:42.144Z,99972.56
2023-09-12T15:23:45.357Z,99970.47
2023-09-12T15:26:47.930Z,99975.34
2023-09-12T15:29:50.804Z,99971.81
2023-09-12T15:32:53.314Z,99975.06
2023-09-12T15:35:56.031Z,99963.16
2023-09-12T15:38:59.330Z,99959.31
2023-09-12T15:42:02.290Z,99967.69
2023-09-12T15:45:05.888Z,99960.41
2023-09-12T15:48:08.787Z,99959.25
2023-09-12T15:51:11.233Z,99961.34
2023-09-12T15:54:13.880Z,99958.06
2023-09-12T15:57:16.259Z,99959.34
2023-09-12T16:00:19.071Z,99968.75
2023-09-12T16:03:22.011Z,99958.62
2023-09-12T16:06:24.512Z,99958.84
2023-09-12T16:09:27.303Z,99956.59
2023-09-12T16:12:29.720Z,99954.56
2023-09-12T16:15:35.359Z,99960.06
2023-09-12T16:18:39.038Z,99964.03
2023-09-12T16:21:41.913Z,99954.81
2023-09-12T16:24:44.573Z,99955.34
2023-09-12T16:27:47.357Z,99950.94
2023-09-12T16:30:50.005Z,99964.59
2023-09-12T16:33:52.874Z,99962.81
2023-09-12T16:36:55.426Z,99962.09
2023-09-12T16:39:58.392Z,99956.63
2023-09-12T16:43:01.471Z,99961.44
2023-09-12T16:46:04.873Z,99968.59
2023-09-12T16:49:07.520Z,99968.88
2023-09-12T16:52:11.203Z,99972.22
2023-09-12T16:55:14.214Z,99973.50
2023-09-12T16:58:17.106Z,99971.63
2023-09-12T17:01:19.569Z,99967.50
2023-09-12T17:04:22.334Z,99965.78
2023-09-12T17:07:24.859Z,99974.59
2023-09-12T17:10:27.613Z,99979.78
2023-09-12T17:13:30.313Z,99975.44
2023-09-12T17:16:33.514Z,99980.50
2023-09-12T17:19:35.955Z,99976.00
2023-09-12T17:22:38.640Z,99983.28
2023-09-12T17:25:41.022Z,99985.19
2023-09-12T17:28:43.762Z,99982.16
2023-09-12T17:31:46.273Z,99986.22
2023-09-12T17:34:50.635Z,99994.72
2023-09-12T17:37:53.097Z,99992.13
2023-09-12T17:40:55.832Z,99995.91
2023-09-12T17:43:58.337Z,99998.03
2023-09-12T17:47:01.547Z,99996.06
2023-09-12T17:50:07.482Z,99998.53
2023-09-12T17:53:10.244Z,100000.47
2023-09-12T17:56:12.811Z,99999.09
2023-09-12T17:59:15.711Z,99998.75
2023-09-12T18:02:18.126Z,99999.22
2023-09-12T18:05:20.826Z,100009.87
2023-09-12T18:08:24.252Z,100016.06
2023-09-12T18:11:27.105Z,100014.03
2023-09-12T18:14:29.673Z,100018.16
2023-09-12T18:17:32.454Z,100024.94
2023-09-12T18:20:34.963Z,100018.22
2023-09-12T18:23:40.604Z,100020.69
2023-09-12T18:26:43.118Z,100027.44
2023-09-12T18:29:45.745Z,100029.50
2023-09-12T18:32:48.116Z,100025.22
2023-09-12T18:35:50.890Z,100028.69
2023-09-12T18:38:53.459Z,100024.56
2023-09-12T18:41:56.204Z,100029.31
2023-09-12T18:44:58.689Z,100022.31
2023-09-12T18:48:01.396Z,100030.91
2023-09-12T18:51:04.146Z,100022.72
2023-09-12T18:54:06.839Z,100023.72
2023-09-12T18:57:11.893Z,100029.84
2023-09-12T19:00:18.032Z,100028.00
2023-09-12T19:03:20.840Z,100025.12
2023-09-12T19:06:23.741Z,100032.88
2023-09-12T19:09:26.256Z,100024.69
2023-09-12T19:12:30.243Z,100029.59
2023-09-12T19:15:32.849Z,100029.19
2023-09-12T19:18:35.562Z,100029.97
2023-09-12T19:21:38.530Z,100028.13
2023-09-12T19:24:41.321Z,100034.06
2023-09-12T19:27:44.299Z,100027.72
2023-09-12T19:30:47.153Z,100033.56
2023-09-12T19:33:49.728Z,100035.44
2023-09-12T19:36:53.746Z,100039.28
2023-09-12T19:39:56.185Z,100029.44
2023-09-12T19:42:59.514Z,100042.91
2023-09-12T19:46:03.650Z,100040.41
2023-09-12T19:49:06.596Z,100045.72
2023-09-12T19:52:09.550Z,100043.03
2023-09-12T19:55:12.579Z,100044.06
2023-09-12T19:58:15.266Z,100044.03
2023-09-12T20:01:18.051Z,100043.19
2023-09-12T20:04:21.083Z,100036.63
2023-09-12T20:07:23.569Z,100038.69
2023-09-12T20:10:26.572Z,100034.75
2023-09-12T20:13:28.967Z,100047.19
2023-09-12T20:16:31.836Z,100044.13
2023-09-12T20:19:34.228Z,100046.69
2023-09-12T20:22:36.957Z,100051.56
2023-09-12T20:25:39.384Z,100045.62
2023-09-12T20:28:42.070Z,100051.97
2023-09-12T20:31:44.988Z,100042.50
2023-09-12T20:34:47.728Z,100048.59
2023-09-12T20:37:50.887Z,100051.00
2023-09-12T20:40:53.659Z,100050.97
2023-09-12T20:43:56.018Z,100052.53
2023-09-12T20:47:01.781Z,100052.34
2023-09-12T20:50:07.163Z,100051.31
2023-09-12T20:53:14.460Z,100048.75
2023-09-12T20:56:16.944Z,100046.31
2023-09-12T20:59:19.795Z,100047.13
2023-09-12T21:02:22.487Z,100044.63
2023-09-12T21:05:25.257Z,100045.38
2023-09-12T21:08:28.201Z,100039.63
2023-09-12T21:11:31.192Z,100039.56
2023-09-12T21:14:35.291Z,100045.62
2023-09-12T21:17:38.604Z,100050.94
2023-09-12T21:20:41.058Z,100047.00
2023-09-12T21:23:43.945Z,100045.13
2023-09-12T21:26:46.559Z,100047.53
2023-09-12T21:29:49.245Z,100043.38
2023-09-12T21:32:53.429Z,100043.56
2023-09-12T21:35:56.267Z,100037.63
2023-09-12T21:38:58.789Z,100040.84
2023-09-12T21:42:01.635Z,100047.97
2023-09-12T21:45:05.193Z,100050.75
2023-09-12T21:48:08.016Z,100045.81
2023-09-12T21:51:11.919Z,100048.66
2023-09-12T21:54:14.750Z,100044.53
2023-09-12T21:57:17.084Z,100048.59
2023-09-12T22:00:23.404Z,100055.25
2023-09-12T22:03:26.406Z,100052.34
2023-09-12T22:06:28.925Z,100052.91
2023-09-12T22:09:32.670Z,100052.44
2023-09-12T22:12:37.065Z,100055.66
2023-09-12T22:15:42.471Z,100057.03
2023-09-12T22:18:45.233Z,100064.50
2023-09-12T22:21:47.939Z,100053.28
2023-09-12T22:24:54.406Z,100062.25
2023-09-12T22:27:57.130Z,100065.91
2023-09-12T22:30:59.709Z,100070.56
2023-09-12T22:34:02.571Z,100063.78
2023-09-12T22:37:05.061Z,100061.31
2023-09-12T22:40:10.735Z,100062.06
2023-09-12T22:43:13.447Z,100064.44
2023-09-12T22:46:16.264Z,100058.88
2023-09-12T22:49:18.894Z,100064.34
2023-09-12T22:52:21.948Z,100068.81
2023-09-12T22:55:24.862Z,100058.22
2023-09-12T22:58:27.591Z,100064.53
2023-09-12T23:01:33.146Z,100065.88
2023-09-12T23:04:36.263Z,100070.50
2023-09-12T23:07:38.779Z,100062.94
2023-09-12T23:10:41.514Z,100060.03
2023-09-12T23:13:44.451Z,100065.31
2023-09-12T23:16:47.693Z,100060.38
2023-09-12T23:19:50.216Z,100066.38
2023-09-12T23:22:52.916Z,100064.28
2023-09-12T23:25:55.293Z,100062.00
2023-09-12T23:28:58.018Z,100060.91
2023-09-12T23:32:00.483Z,100062.25
2023-09-12T23:35:04.194Z,100060.78
2023-09-12T23:38:06.633Z,100060.34
2023-09-12T23:41:09.381Z,100055.41
2023-09-12T23:44:11.782Z,100062.69
2023-09-12T23:47:15.406Z,100055.13
2023-09-12T23:50:17.758Z,100059.75
2023-09-12T23:53:21.353Z,100048.72
2023-09-12T23:56:23.773Z,100061.75
2023-09-12T23:59:26.589Z,100057.66
